Time;durP1;ratioP1;P1;durP2;ratioP2;P2;SDS_P1;SDS_P2;PMS_P1;PMS_P2;Temp;Humidity;BMP_temperature;BMP_pressure;BME280_temperature;BME280_humidity;BME280_pressure;Samples;Min_cycle;Max_cycle;Signal;HPM_P1;HPM_P2
2023/04/01 00:01:30;;;;;;;5.78;5.18;;;10.00;99.90;;;;;;5072503;28;20923;-88
2023/04/01 00:03:57;;;;;;;7.20;5.82;;;10.10;99.90;;;;;;5072224;28;20151;-88
2023/04/01 00:06:25;;;;;;;7.07;6.18;;;9.90;99.90;;;;;;5055792;28;20047;-87
2023/04/01 00:08:52;;;;;;;5.53;5.03;;;10.10;99.90;;;;;;5056225;28;20040;-86
2023/04/01 00:11:21;;;;;;;6.32;5.68;;;9.90;99.90;;;;;;5057083;28;20059;-89
2023/04/01 00:13:48;;;;;;;7.82;6.25;;;10.00;99.90;;;;;;5071587;28;20491;-88
2023/04/01 00:16:15;;;;;;;6.00;5.40;;;9.90;99.90;;;;;;5054925;28;20083;-89
2023/04/01 00:18:46;;;;;;;6.57;5.45;;;10.10;99.90;;;;;;5040982;28;20138;-88
2023/04/01 00:21:14;;;;;;;6.72;5.38;;;9.90;99.90;;;;;;5055621;28;20109;-87
2023/04/01 00:23:41;;;;;;;6.53;5.82;;;10.00;99.90;;;;;;5056117;28;20056;-88
2023/04/01 00:26:08;;;;;;;5.70;5.07;;;10.00;99.90;;;;;;5055984;28;20058;-88
2023/04/01 00:28:35;;;;;;;6.10;4.97;;;10.10;99.90;;;;;;5055958;28;20048;-88
2023/04/01 00:31:06;;;;;;;6.97;5.55;;;10.00;99.90;;;;;;5055489;28;20380;-88
2023/04/01 00:33:34;;;;;;;5.03;4.53;;;10.00;99.90;;;;;;5065025;28;20052;-88
2023/04/01 00:36:11;;;;;;;6.10;4.93;;;9.90;99.90;;;;;;5054733;28;20099;-87
2023/04/01 00:38:37;;;;;;;4.60;4.03;;;9.90;99.90;;;;;;5072668;28;20052;-88
2023/04/01 00:41:04;;;;;;;5.03;4.53;;;10.10;99.90;;;;;;5038914;28;20052;-88
2023/04/01 00:43:31;;;;;;;5.20;4.40;;;10.20;99.90;;;;;;5052312;28;20484;-88
2023/04/01 00:45:58;;;;;;;5.60;4.63;;;10.10;99.90;;;;;;5056217;28;20063;-88
2023/04/01 00:48:31;;;;;;;5.38;4.88;;;10.10;99.90;;;;;;5055397;28;20150;-88
2023/04/01 00:51:04;;;;;;;7.60;5.75;;;9.90;99.90;;;;;;5054935;28;20064;-89
2023/04/01 00:53:32;;;;;;;6.22;5.57;;;10.10;99.90;;;;;;5055127;28;20055;-89
2023/04/01 00:56:03;;;;;;;5.60;5.05;;;10.00;99.90;;;;;;5055170;28;20097;-88
2023/04/01 00:58:32;;;;;;;5.45;4.95;;;10.00;99.90;;;;;;5039506;28;20166;-88
2023/04/01 01:00:59;;;;;;;5.97;5.38;;;10.00;99.90;;;;;;5055007;28;20044;-88
2023/04/01 01:03:27;;;;;;;4.88;4.25;;;9.80;99.90;;;;;;5038136;28;20461;-88
2023/04/01 01:06:05;;;;;;;4.35;3.67;;;9.90;99.90;;;;;;5033959;28;20072;-88
2023/04/01 01:08:37;;;;;;;5.57;5.00;;;9.90;99.90;;;;;;5033993;28;20071;-86
2023/04/01 01:11:05;;;;;;;5.55;5.05;;;10.00;99.90;;;;;;5036291;28;20140;-87
2023/04/01 01:13:40;;;;;;;5.55;4.93;;;9.80;99.90;;;;;;5072634;28;20795;-87
2023/04/01 01:16:14;;;;;;;4.63;4.22;;;9.80;99.90;;;;;;5057003;28;20059;-87
2023/04/01 01:18:55;;;;;;;5.20;4.70;;;9.80;99.90;;;;;;5058053;28;20043;-87
2023/04/01 01:21:41;;;;;;;6.32;5.65;;;9.90;99.90;;;;;;5072940;28;20087;-87
2023/04/01 01:24:32;;;;;;;6.82;5.72;;;9.70;99.90;;;;;;5088410;28;20059;-87
2023/04/01 01:27:19;;;;;;;5.45;4.95;;;9.80;99.90;;;;;;5091669;28;20095;-88
2023/04/01 01:30:04;;;;;;;5.78;5.18;;;9.70;99.90;;;;;;5090057;28;20480;-87
2023/04/01 01:32:50;;;;;;;5.45;4.95;;;9.70;99.90;;;;;;5065346;28;20117;-88
2023/04/01 01:35:23;;;;;;;5.55;4.90;;;9.60;99.90;;;;;;5071214;28;20106;-87
2023/04/01 01:37:55;;;;;;;6.07;5.47;;;9.60;99.90;;;;;;5071530;28;20048;-87
2023/04/01 01:40:22;;;;;;;5.60;5.10;;;9.60;99.90;;;;;;5039569;28;20049;-88
2023/04/01 01:42:51;;;;;;;4.38;3.97;;;9.60;99.90;;;;;;5048962;28;20072;-88
2023/04/01 01:45:19;;;;;;;5.45;4.30;;;9.40;99.90;;;;;;5057125;28;20052;-88
2023/04/01 01:47:47;;;;;;;4.15;3.40;;;9.30;99.90;;;;;;5055293;28;20059;-88
2023/04/01 01:50:14;;;;;;;3.90;3.30;;;9.30;99.90;;;;;;5070682;28;20052;-89
2023/04/01 01:52:41;;;;;;;3.25;2.63;;;9.30;99.90;;;;;;5054698;28;20064;-87
2023/04/01 01:55:29;;;;;;;3.40;2.70;;;9.20;99.90;;;;;;5058727;28;20051;-88
2023/04/01 01:58:13;;;;;;;2.40;2.17;;;9.30;99.90;;;;;;5060604;28;20497;-87
2023/04/01 02:00:40;;;;;;;;;;;9.30;99.90;;;;;;5065294;28;20051;-86
2023/04/01 02:03:07;;;;;;;3.55;2.83;;;9.20;99.90;;;;;;5078487;28;19942;-87
2023/04/01 02:05:34;;;;;;;3.80;2.75;;;9.10;99.90;;;;;;5040475;28;20102;-87
2023/04/01 02:08:06;;;;;;;2.92;2.30;;;9.10;99.90;;;;;;5040373;28;20052;-88
2023/04/01 02:10:35;;;;;;;3.15;2.75;;;9.20;99.90;;;;;;5055675;28;20049;-87
2023/04/01 02:13:05;;;;;;;2.63;2.42;;;9.20;99.90;;;;;;5039013;28;20063;-88
2023/04/01 02:15:33;;;;;;;2.72;2.22;;;9.10;99.90;;;;;;5041248;28;20127;-87
2023/04/01 02:18:00;;;;;;;2.67;1.90;;;9.20;99.90;;;;;;5053873;28;20052;-88
2023/04/01 02:20:27;;;;;;;2.53;1.92;;;9.20;99.90;;;;;;5053414;28;20083;-88
2023/04/01 02:22:55;;;;;;;2.72;2.30;;;9.20;99.90;;;;;;5054510;28;20070;-88
2023/04/01 02:25:24;;;;;;;2.97;2.25;;;9.20;99.90;;;;;;5058731;28;20481;-88
2023/04/01 02:27:52;;;;;;;3.45;2.15;;;9.10;99.90;;;;;;5057158;28;20079;-89
2023/04/01 02:30:19;;;;;;;3.17;2.22;;;9.20;99.90;;;;;;5056677;28;20143;-88
2023/04/01 02:32:47;;;;;;;2.00;1.70;;;9.20;99.90;;;;;;5057744;28;20445;-88
2023/04/01 02:35:15;;;;;;;2.30;1.88;;;9.10;99.90;;;;;;5056989;28;20081;-87
2023/04/01 02:37:42;;;;;;;3.15;1.50;;;9.10;99.90;;;;;;5058371;28;20473;-88
2023/04/01 02:40:13;;;;;;;1.92;1.70;;;9.10;99.90;;;;;;5058012;28;20048;-88
2023/04/01 02:42:39;;;;;;;1.33;1.17;;;9.10;99.90;;;;;;5057913;28;20048;-88
2023/04/01 02:45:07;;;;;;;1.83;1.45;;;9.20;99.90;;;;;;5058033;28;20104;-88
2023/04/01 02:47:34;;;;;;;3.25;1.83;;;9.10;99.90;;;;;;5058141;28;20127;-88
2023/04/01 02:50:01;;;;;;;2.70;1.80;;;9.10;99.90;;;;;;5057614;28;20826;-88
2023/04/01 02:52:28;;;;;;;2.47;1.88;;;9.10;99.90;;;;;;5057446;28;20048;-88
2023/04/01 02:54:55;;;;;;;2.60;1.83;;;9.10;99.90;;;;;;5057291;28;20488;-88
2023/04/01 02:57:22;;;;;;;1.67;1.50;;;9.10;99.90;;;;;;5057657;28;20076;-87
2023/04/01 02:59:50;;;;;;;2.22;1.70;;;9.10;99.90;;;;;;5057689;28;20052;-88
2023/04/01 03:02:17;;;;;;;1.85;1.65;;;9.10;99.90;;;;;;5091510;28;20044;-88
2023/04/01 03:04:44;;;;;;;2.58;1.70;;;9.10;99.90;;;;;;5040718;28;20052;-87
2023/04/01 03:07:11;;;;;;;2.95;1.88;;;9.00;99.90;;;;;;5057759;28;20097;-87
2023/04/01 03:09:38;;;;;;;2.10;1.70;;;9.00;99.90;;;;;;5057635;28;20048;-88
2023/04/01 03:12:05;;;;;;;2.25;1.80;;;9.00;99.90;;;;;;5057249;28;20131;-88
2023/04/01 03:14:32;;;;;;;1.60;1.50;;;9.10;99.90;;;;;;5057784;28;20052;-88
2023/04/01 03:17:00;;;;;;;1.88;1.48;;;9.10;99.90;;;;;;5092013;28;20447;-88
2023/04/01 03:19:27;;;;;;;1.50;1.30;;;9.10;99.90;;;;;;5092519;28;20405;-88
2023/04/01 03:21:55;;;;;;;2.63;2.00;;;9.10;99.90;;;;;;5091006;28;20063;-87
2023/04/01 03:24:23;;;;;;;2.55;1.80;;;9.00;99.90;;;;;;5091846;28;20059;-86
2023/04/01 03:26:50;;;;;;;1.75;1.42;;;9.10;99.90;;;;;;5073920;28;20538;-88
2023/04/01 03:29:17;;;;;;;1.38;1.20;;;9.10;99.90;;;;;;5057361;28;20552;-87
2023/04/01 03:31:44;;;;;;;1.50;1.27;;;9.00;99.90;;;;;;5057962;28;20390;-88
2023/04/01 03:34:11;;;;;;;1.98;1.65;;;9.00;99.90;;;;;;5077803;28;20051;-88
2023/04/01 03:36:38;;;;;;;2.10;1.70;;;9.00;99.90;;;;;;5076419;28;20125;-87
2023/04/01 03:39:05;;;;;;;1.75;1.55;;;8.90;99.90;;;;;;5044523;28;20055;-87
2023/04/01 03:41:32;;;;;;;2.30;1.90;;;8.90;99.90;;;;;;5044282;28;20058;-88
2023/04/01 03:43:59;;;;;;;1.38;1.15;;;8.90;99.90;;;;;;5060353;28;20130;-86
2023/04/01 03:46:26;;;;;;;2.10;1.30;;;8.90;99.90;;;;;;5060629;28;20135;-87
2023/04/01 03:48:53;;;;;;;2.13;1.50;;;8.90;99.90;;;;;;5043879;28;20048;-87
2023/04/01 03:51:20;;;;;;;2.00;1.42;;;8.90;99.90;;;;;;5076616;28;20102;-88
2023/04/01 03:53:47;;;;;;;1.48;1.25;;;8.90;99.90;;;;;;5060351;28;20064;-87
2023/04/01 03:56:14;;;;;;;1.90;1.50;;;8.90;99.90;;;;;;5056816;28;20044;-88
2023/04/01 03:58:41;;;;;;;1.88;1.38;;;8.80;99.90;;;;;;5040436;28;20048;-87
2023/04/01 04:01:20;;;;;;;1.45;1.30;;;8.80;99.90;;;;;;5040346;28;20048;-87
2023/04/01 04:03:49;;;;;;;1.58;1.20;;;8.90;99.90;;;;;;5040263;28;20110;-87
2023/04/01 04:06:17;;;;;;;1.98;1.38;;;9.00;99.90;;;;;;5047359;28;20061;-87
2023/04/01 04:08:44;;;;;;;1.83;1.35;;;8.90;99.90;;;;;;5040243;28;20048;-87
2023/04/01 04:11:12;;;;;;;1.88;1.00;;;9.00;99.90;;;;;;5056307;28;20076;-87
2023/04/01 04:13:39;;;;;;;1.73;1.50;;;8.90;99.90;;;;;;5040645;28;20102;-87
2023/04/01 04:16:06;;;;;;;1.75;1.30;;;9.00;99.90;;;;;;5083404;28;20102;-87
2023/04/01 04:18:33;;;;;;;1.55;1.17;;;9.00;99.90;;;;;;5060092;28;20052;-86
2023/04/01 04:21:00;;;;;;;1.38;1.27;;;9.00;99.90;;;;;;5059181;28;20044;-88
2023/04/01 04:23:29;;;;;;;1.15;1.05;;;9.10;99.90;;;;;;5060051;28;20135;-87
2023/04/01 04:26:06;;;;;;;1.40;1.20;;;9.00;99.90;;;;;;5060909;28;20044;-87
2023/04/01 04:28:33;;;;;;;1.40;1.20;;;9.10;99.90;;;;;;5043813;28;20138;-87
2023/04/01 04:31:00;;;;;;;1.85;1.27;;;9.10;99.90;;;;;;5059832;28;20449;-88
2023/04/01 04:33:27;;;;;;;1.50;1.30;;;9.00;99.90;;;;;;5060155;28;20052;-87
2023/04/01 04:35:57;;;;;;;1.73;1.50;;;9.00;99.90;;;;;;5042106;28;20396;-87
2023/04/01 04:38:25;;;;;;;2.03;1.38;;;9.00;99.90;;;;;;5043457;28;20052;-87
2023/04/01 04:40:52;;;;;;;1.75;1.42;;;9.00;99.90;;;;;;5059219;28;20536;-87
2023/04/01 04:43:19;;;;;;;1.73;1.08;;;8.90;99.90;;;;;;5059889;28;20048;-88
2023/04/01 04:45:46;;;;;;;1.40;1.17;;;8.90;99.90;;;;;;5043522;28;20044;-87
2023/04/01 04:48:18;;;;;;;1.20;1.02;;;8.90;99.90;;;;;;5042837;28;20044;-87
2023/04/01 04:50:49;;;;;;;1.83;1.05;;;8.90;99.90;;;;;;5056620;28;20075;-88
2023/04/01 04:53:17;;;;;;;1.90;1.02;;;8.90;99.90;;;;;;5074188;28;20503;-87
2023/04/01 04:55:48;;;;;;;1.58;1.08;;;8.80;99.90;;;;;;5053286;28;20490;-87
2023/04/01 04:58:15;;;;;;;2.58;1.42;;;8.80;99.90;;;;;;5053527;28;20080;-86
2023/04/01 05:00:42;;;;;;;1.30;1.02;;;8.90;99.90;;;;;;5089413;28;20109;-87
2023/04/01 05:03:09;;;;;;;1.45;1.08;;;8.80;99.90;;;;;;5048190;28;20075;-88
2023/04/01 05:05:37;;;;;;;1.30;1.00;;;8.90;99.90;;;;;;5055254;28;20122;-87
2023/04/01 05:08:04;;;;;;;1.40;1.10;;;9.00;99.90;;;;;;5071374;28;20135;-88
2023/04/01 05:10:31;;;;;;;0.95;0.82;;;8.90;99.90;;;;;;5053549;28;20058;-87
2023/04/01 05:12:58;;;;;;;1.00;0.80;;;9.00;99.90;;;;;;5037830;28;20125;-88
2023/04/01 05:15:25;;;;;;;1.42;0.98;;;9.00;99.90;;;;;;5039045;28;20147;-87
2023/04/01 05:17:52;;;;;;;1.55;1.00;;;9.00;99.90;;;;;;5070448;28;20051;-87
2023/04/01 05:20:19;;;;;;;2.20;1.20;;;9.00;99.90;;;;;;5054130;28;20097;-87
2023/04/01 05:22:46;;;;;;;1.17;1.00;;;9.00;99.90;;;;;;5056478;28;20044;-87
2023/04/01 05:25:14;;;;;;;1.55;0.90;;;9.00;99.90;;;;;;5040214;28;20052;-88
2023/04/01 05:27:41;;;;;;;1.17;0.90;;;9.00;99.90;;;;;;5089795;28;20101;-87
2023/04/01 05:30:08;;;;;;;1.55;1.23;;;9.10;99.90;;;;;;5054418;28;20066;-85
2023/04/01 05:32:35;;;;;;;2.13;1.08;;;9.10;99.90;;;;;;5070185;28;20181;-87
2023/04/01 05:35:02;;;;;;;1.80;1.58;;;9.00;99.90;;;;;;5052393;28;20351;-87
2023/04/01 05:37:28;;;;;;;1.92;1.35;;;8.90;99.90;;;;;;5054942;28;20617;-87
2023/04/01 05:39:55;;;;;;;1.30;1.20;;;8.90;99.90;;;;;;5055946;28;20518;-85
2023/04/01 05:42:22;;;;;;;1.67;1.35;;;8.90;99.90;;;;;;5056484;28;20652;-88
2023/04/01 05:44:49;;;;;;;1.45;1.23;;;9.00;99.90;;;;;;5034010;28;20054;-87
2023/04/01 05:47:16;;;;;;;1.42;1.27;;;8.90;99.90;;;;;;5048425;28;20055;-87
2023/04/01 05:49:43;;;;;;;1.15;1.02;;;8.90;99.90;;;;;;5062344;28;20450;-86
2023/04/01 05:52:11;;;;;;;1.48;1.20;;;8.90;99.90;;;;;;5072654;28;20403;-88
2023/04/01 05:54:38;;;;;;;1.00;0.80;;;9.00;99.90;;;;;;5064678;28;20443;-88
2023/04/01 05:57:05;;;;;;;1.42;1.10;;;9.00;99.90;;;;;;5066118;28;20621;-88
2023/04/01 05:59:32;;;;;;;1.17;1.00;;;9.00;99.90;;;;;;5045950;28;20048;-86
2023/04/01 06:01:59;;;;;;;1.17;0.80;;;9.00;99.90;;;;;;5054472;28;20076;-88
2023/04/01 06:04:26;;;;;;;1.38;1.02;;;9.10;99.90;;;;;;5053810;28;20380;-88
2023/04/01 06:06:54;;;;;;;1.65;1.10;;;9.10;99.90;;;;;;5054337;28;20091;-87
2023/04/01 06:09:27;;;;;;;1.05;0.95;;;9.00;99.90;;;;;;5070224;28;20076;-87
2023/04/01 06:12:09;;;;;;;1.88;1.60;;;9.10;99.90;;;;;;5053883;28;20105;-88
2023/04/01 06:14:57;;;;;;;3.15;2.20;;;9.00;99.90;;;;;;5072369;28;20048;-88
2023/04/01 06:17:41;;;;;;;2.10;1.75;;;8.90;99.90;;;;;;5090284;28;20062;-87
2023/04/01 06:20:17;;;;;;;2.45;1.90;;;8.90;99.90;;;;;;5055324;28;20475;-88
2023/04/01 06:23:08;;;;;;;2.25;1.85;;;8.90;99.90;;;;;;5086177;28;20488;-87
2023/04/01 06:25:41;;;;;;;1.85;1.50;;;9.00;99.90;;;;;;5068864;28;20064;-84
2023/04/01 06:28:17;;;;;;;2.45;2.05;;;9.00;99.90;;;;;;5068995;28;20048;-87
2023/04/01 06:30:57;;;;;;;2.25;1.92;;;8.90;99.90;;;;;;5063685;28;20617;-87
2023/04/01 06:33:45;;;;;;;2.47;2.03;;;8.90;99.90;;;;;;5062601;28;20147;-87
2023/04/01 06:36:27;;;;;;;2.58;1.77;;;8.90;99.90;;;;;;5084980;28;20048;-85
2023/04/01 06:39:32;;;;;;;2.40;1.73;;;8.90;99.90;;;;;;5049498;28;20052;-88
2023/04/01 06:42:26;;;;;;;2.33;1.80;;;8.90;99.90;;;;;;5035314;28;20185;-87
2023/04/01 06:45:17;;;;;;;2.03;1.70;;;8.80;99.90;;;;;;5067371;28;20054;-87
2023/04/01 06:47:58;;;;;;;2.47;1.60;;;8.80;99.90;;;;;;5049140;28;20080;-85
2023/04/01 06:50:41;;;;;;;2.92;2.00;;;8.80;99.90;;;;;;5076960;28;20048;-86
2023/04/01 06:53:36;;;;;;;3.37;1.87;;;8.80;99.90;;;;;;5064826;28;20121;-84
2023/04/01 06:56:12;;;;;;;2.75;2.20;;;8.80;99.90;;;;;;5064602;28;20084;-85
2023/04/01 06:58:52;;;;;;;1.98;1.50;;;8.80;99.90;;;;;;5046520;28;20063;-86
2023/04/01 07:01:27;;;;;;;2.05;1.77;;;8.90;99.90;;;;;;5047656;28;20052;-84
2023/04/01 07:04:00;;;;;;;3.15;2.20;;;8.90;99.90;;;;;;5047176;28;20138;-85
2023/04/01 07:06:28;;;;;;;2.85;2.53;;;8.90;99.90;;;;;;5043050;28;20044;-84
2023/04/01 07:08:55;;;;;;;3.30;2.63;;;8.80;99.90;;;;;;5050114;28;20483;-84
2023/04/01 07:11:26;;;;;;;2.50;2.28;;;8.80;99.90;;;;;;5065720;28;20909;-84
2023/04/01 07:14:22;;;;;;;3.25;2.63;;;8.80;99.90;;;;;;5050718;28;20133;-85
2023/04/01 07:16:55;;;;;;;3.80;2.20;;;8.90;99.90;;;;;;5058660;28;20051;-84
2023/04/01 07:19:26;;;;;;;2.50;1.90;;;9.00;99.90;;;;;;5033513;28;20059;-85
2023/04/01 07:22:35;;;;;;;4.53;2.83;;;9.10;99.90;;;;;;5044772;28;20080;-86
2023/04/01 07:25:05;;;;;;;3.13;2.40;;;9.10;99.90;;;;;;5050250;28;20063;-84
2023/04/01 07:27:32;;;;;;;4.45;3.28;;;9.10;99.90;;;;;;5030428;28;20043;-86
2023/04/01 07:30:00;;;;;;;5.55;3.05;;;9.10;99.90;;;;;;5030897;28;20048;-85
2023/04/01 07:32:32;;;;;;;4.03;2.58;;;9.00;99.90;;;;;;5032920;28;20056;-85
2023/04/01 07:35:23;;;;;;;3.03;2.47;;;9.20;99.90;;;;;;5056301;28;20048;-84
2023/04/01 07:38:01;;;;;;;4.20;3.08;;;9.30;99.90;;;;;;5067803;28;20211;-86
2023/04/01 07:40:52;;;;;;;5.10;3.28;;;9.40;99.90;;;;;;5051722;28;20052;-84
2023/04/01 07:43:33;;;;;;;3.97;2.50;;;9.30;99.90;;;;;;5061227;28;20052;-85
2023/04/01 07:46:19;;;;;;;3.03;2.20;;;9.30;99.90;;;;;;5067740;28;20058;-85
2023/04/01 07:48:55;;;;;;;3.15;2.58;;;9.30;99.90;;;;;;5051555;28;20050;-85
2023/04/01 07:51:27;;;;;;;3.65;2.38;;;9.30;99.90;;;;;;5045571;28;20084;-85
2023/04/01 07:54:03;;;;;;;3.17;2.50;;;9.30;99.90;;;;;;5034763;28;20571;-84
2023/04/01 07:56:35;;;;;;;3.28;2.42;;;9.20;99.90;;;;;;5066786;28;20055;-85
2023/04/01 07:59:11;;;;;;;3.58;2.83;;;9.30;99.90;;;;;;5066815;28;20499;-86
2023/04/01 08:01:45;;;;;;;4.03;2.08;;;9.20;99.90;;;;;;5084853;28;20056;-86
2023/04/01 08:04:42;;;;;;;3.67;2.80;;;9.20;99.90;;;;;;5077265;28;20048;-84
2023/04/01 08:07:19;;;;;;;3.35;2.85;;;9.10;99.90;;;;;;5031500;28;20058;-85
2023/04/01 08:09:55;;;;;;;3.92;3.45;;;9.00;99.90;;;;;;5072173;28;20130;-85
2023/04/01 08:12:41;;;;;;;2.85;2.40;;;9.10;99.90;;;;;;5082594;28;20476;-85
2023/04/01 08:15:23;;;;;;;6.28;4.07;;;9.00;99.90;;;;;;5066377;28;20083;-85
2023/04/01 08:18:02;;;;;;;4.90;4.07;;;9.00;99.90;;;;;;5050520;28;20141;-85
2023/04/01 08:20:41;;;;;;;5.15;3.88;;;9.00;99.90;;;;;;5083361;28;20060;-85
2023/04/01 08:23:14;;;;;;;5.72;4.45;;;9.00;99.90;;;;;;5085578;28;20098;-85
2023/04/01 08:25:56;;;;;;;6.80;4.25;;;9.00;99.90;;;;;;5059697;28;20070;-85
2023/04/01 08:28:44;;;;;;;4.60;3.80;;;9.10;99.90;;;;;;5054124;28;20059;-85
2023/04/01 08:31:22;;;;;;;4.80;3.53;;;9.20;99.90;;;;;;5057505;28;20054;-85
2023/04/01 08:33:49;;;;;;;4.05;3.17;;;9.30;99.90;;;;;;5044202;28;20052;-86
2023/04/01 08:36:24;;;;;;;6.50;4.35;;;9.40;99.90;;;;;;5051434;28;20178;-85
2023/04/01 08:38:53;;;;;;;4.45;3.80;;;9.30;99.90;;;;;;5048743;28;20468;-86
2023/04/01 08:41:38;;;;;;;3.70;3.10;;;9.40;99.90;;;;;;5065910;28;20047;-84
2023/04/01 08:44:30;;;;;;;3.90;3.20;;;9.40;99.90;;;;;;5081559;28;20116;-85
2023/04/01 08:47:04;;;;;;;3.88;2.90;;;9.40;99.90;;;;;;5068314;28;20062;-86
2023/04/01 08:50:06;;;;;;;4.78;2.67;;;9.50;99.90;;;;;;5066851;28;20055;-84
2023/04/01 08:52:37;;;;;;;3.22;2.60;;;9.60;99.90;;;;;;5062244;28;20568;-83
2023/04/01 08:55:22;;;;;;;3.33;2.90;;;9.70;99.90;;;;;;5041993;28;20048;-84
2023/04/01 08:58:11;;;;;;;4.03;2.92;;;9.80;99.90;;;;;;5059463;28;20074;-83
2023/04/01 09:00:51;;;;;;;3.55;2.92;;;9.90;99.90;;;;;;5096646;28;20056;-83
2023/04/01 09:03:40;;;;;;;3.95;3.03;;;9.90;99.90;;;;;;5038525;28;20136;-83
2023/04/01 09:06:24;;;;;;;3.30;2.45;;;9.90;99.90;;;;;;5053465;28;20124;-83
2023/04/01 09:09:29;;;;;;;4.25;3.03;;;10.00;99.90;;;;;;5058953;28;20057;-83
2023/04/01 09:12:28;;;;;;;4.25;3.38;;;9.90;99.90;;;;;;5030242;28;20493;-83
2023/04/01 09:15:20;;;;;;;3.55;2.95;;;9.90;99.90;;;;;;5040388;28;20601;-80
2023/04/01 09:18:08;;;;;;;3.03;2.45;;;9.90;99.90;;;;;;5097403;28;20048;-83
2023/04/01 09:21:03;;;;;;;3.00;2.50;;;9.90;99.90;;;;;;5071303;28;20403;-81
2023/04/01 09:24:09;;;;;;;3.35;2.65;;;9.90;99.90;;;;;;5057696;28;20055;-81
2023/04/01 09:27:00;;;;;;;3.35;2.70;;;9.90;99.90;;;;;;5077963;28;20104;-82
2023/04/01 09:30:02;;;;;;;4.50;3.08;;;10.00;99.90;;;;;;5062292;28;20063;-83
2023/04/01 09:32:53;;;;;;;3.35;2.47;;;10.00;99.90;;;;;;5058803;28;20048;-81
2023/04/01 09:35:46;;;;;;;3.20;2.72;;;10.20;99.90;;;;;;5059524;28;20056;-81
2023/04/01 09:38:54;;;;;;;3.80;2.80;;;10.20;99.90;;;;;;5060868;28;20048;-81
2023/04/01 09:41:32;;;;;;;4.50;3.08;;;10.30;99.90;;;;;;5067394;28;20052;-81
2023/04/01 09:44:01;;;;;;;2.97;2.67;;;10.40;99.90;;;;;;5058723;28;20076;-81
2023/04/01 09:47:00;;;;;;;2.55;2.13;;;10.40;99.90;;;;;;5066779;28;20048;-81
2023/04/01 09:50:00;;;;;;;2.42;1.88;;;10.30;99.90;;;;;;5050746;28;20062;-81
2023/04/01 09:52:42;;;;;;;2.72;1.90;;;10.30;99.90;;;;;;5060952;28;20064;-81
2023/04/01 09:55:54;;;;;;;3.65;2.50;;;10.30;99.90;;;;;;5060426;28;20052;-81
2023/04/01 09:58:46;;;;;;;2.78;2.30;;;10.30;99.90;;;;;;5037349;28;20055;-81
2023/04/01 10:01:34;;;;;;;3.42;2.35;;;10.30;99.90;;;;;;5066147;28;20503;-81
2023/04/01 10:04:28;;;;;;;4.07;2.33;;;10.30;99.90;;;;;;5076022;28;20055;-81
2023/04/01 10:07:07;;;;;;;3.75;2.60;;;10.40;99.90;;;;;;5059856;28;20521;-81
2023/04/01 10:10:11;;;;;;;4.53;3.05;;;10.40;99.90;;;;;;5057794;28;20052;-81
2023/04/01 10:13:02;;;;;;;4.03;2.88;;;10.40;99.90;;;;;;5065867;28;20217;-81
2023/04/01 10:15:51;;;;;;;3.75;2.72;;;10.50;99.90;;;;;;5075139;28;20148;-81
2023/04/01 10:18:49;;;;;;;4.28;2.53;;;10.50;99.90;;;;;;5054208;28;20048;-81
2023/04/01 10:21:40;;;;;;;3.97;2.70;;;10.40;99.90;;;;;;5059034;28;20086;-81
2023/04/01 10:24:46;;;;;;;2.72;2.13;;;10.40;99.90;;;;;;5064830;28;20052;-80
2023/04/01 10:27:15;;;;;;;2.60;2.22;;;10.40;99.90;;;;;;5031004;28;20109;-83
2023/04/01 10:30:05;;;;;;;2.60;2.10;;;10.60;99.90;;;;;;5073909;28;20144;-81
2023/04/01 10:32:45;;;;;;;2.53;2.08;;;10.50;99.90;;;;;;5058069;28;20046;-81
2023/04/01 10:35:43;;;;;;;2.72;1.70;;;10.70;99.90;;;;;;5063447;28;20066;-81
2023/04/01 10:38:15;;;;;;;2.85;1.70;;;10.80;99.90;;;;;;5081060;28;20048;-81
2023/04/01 10:41:01;;;;;;;1.40;1.27;;;10.90;99.90;;;;;;5065008;28;20419;-81
2023/04/01 10:44:12;;;;;;;3.30;1.80;;;10.90;99.90;;;;;;5065452;28;20078;-81
2023/04/01 10:47:02;;;;;;;2.95;2.00;;;10.80;99.90;;;;;;5056547;28;20036;-84
2023/04/01 10:49:29;;;;;;;3.72;2.13;;;10.80;99.90;;;;;;5057012;28;20047;-91
2023/04/01 10:51:56;;;;;;;3.15;2.22;;;10.80;99.90;;;;;;5058064;28;20085;-91
2023/04/01 10:54:34;;;;;;;3.47;2.20;;;10.70;99.90;;;;;;5089974;28;20044;-91
2023/04/01 10:57:22;;;;;;;2.65;2.20;;;10.70;99.90;;;;;;5085930;28;20428;-92
2023/04/01 11:00:24;;;;;;;3.28;2.38;;;10.80;99.90;;;;;;5061443;28;20052;-92
2023/04/01 11:02:56;;;;;;;3.55;2.88;;;10.90;99.90;;;;;;5086012;28;20395;-91
2023/04/01 11:06:02;;;;;;;2.97;2.28;;;11.20;99.90;;;;;;5050522;28;20052;-91
2023/04/01 11:08:50;;;;;;;2.65;2.08;;;11.50;99.90;;;;;;5073246;28;20255;-90
2023/04/01 11:11:41;;;;;;;2.35;1.95;;;11.70;99.90;;;;;;5080507;28;20044;-92
2023/04/01 11:14:21;;;;;;;3.60;2.97;;;11.90;99.90;;;;;;5049682;28;20052;-91
2023/04/01 11:16:56;;;;;;;5.60;3.00;;;11.70;99.90;;;;;;5063641;28;20053;-91
2023/04/01 11:19:45;;;;;;;3.45;3.15;;;11.50;99.90;;;;;;5062957;28;20130;-92
2023/04/01 11:22:31;;;;;;;3.70;2.90;;;11.20;99.90;;;;;;5078957;28;20600;-91
2023/04/01 11:25:09;;;;;;;3.97;2.83;;;11.00;99.90;;;;;;5066021;28;20592;-92
2023/04/01 11:27:55;;;;;;;3.88;3.05;;;10.90;99.90;;;;;;5064583;28;20068;-92
2023/04/01 11:30:24;;;;;;;3.00;2.60;;;10.80;99.90;;;;;;5065566;28;20075;-92
2023/04/01 11:33:05;;;;;;;4.68;3.10;;;10.80;99.90;;;;;;5065938;28;20051;-92
2023/04/01 11:36:10;;;;;;;5.57;3.53;;;10.70;99.90;;;;;;5085440;28;20140;-92
2023/04/01 11:39:24;;;;;;;4.40;3.08;;;10.70;99.90;;;;;;5074285;28;20101;-92
2023/04/01 11:42:17;;;;;;;5.57;4.03;;;10.80;99.90;;;;;;5047146;28;20059;-84
2023/04/01 11:45:00;;;;;;;5.03;3.38;;;10.90;99.90;;;;;;5056768;28;20282;-82
2023/04/01 11:47:42;;;;;;;4.75;3.47;;;11.20;99.90;;;;;;5028305;28;20045;-84
2023/04/01 11:50:12;;;;;;;5.10;3.50;;;11.40;99.90;;;;;;5058194;28;20059;-83
2023/04/01 11:52:45;;;;;;;7.07;4.30;;;11.30;99.90;;;;;;5056325;28;20130;-83
2023/04/01 11:55:21;;;;;;;5.00;3.40;;;11.10;99.90;;;;;;5039754;28;20056;-84
2023/04/01 11:58:14;;;;;;;6.30;3.95;;;11.00;99.90;;;;;;5051302;28;20061;-83
2023/04/01 12:00:53;;;;;;;6.13;4.07;;;11.00;99.90;;;;;;5048378;28;20542;-84
2023/04/01 12:03:39;;;;;;;6.07;3.78;;;11.00;99.90;;;;;;5043347;28;20421;-84
2023/04/01 12:06:21;;;;;;;6.35;3.88;;;11.10;99.90;;;;;;5056040;28;20349;-84
2023/04/01 12:09:04;;;;;;;6.55;3.42;;;11.30;99.90;;;;;;5041771;28;20575;-85
2023/04/01 12:11:40;;;;;;;3.33;2.92;;;11.30;99.90;;;;;;5045627;28;20051;-83
2023/04/01 12:14:19;;;;;;;4.38;2.92;;;11.40;99.90;;;;;;5058927;28;20052;-84
2023/04/01 12:16:51;;;;;;;5.18;3.67;;;11.60;99.90;;;;;;5061844;28;20048;-84
2023/04/01 12:19:53;;;;;;;4.17;2.43;;;11.70;99.90;;;;;;5062357;28;20052;-83
2023/04/01 12:22:47;;;;;;;3.17;2.28;;;11.70;99.90;;;;;;5061648;28;20086;-82
2023/04/01 12:25:13;;;;;;;;;;;12.00;99.90;;;;;;5061492;28;20048;-83
2023/04/01 12:27:58;;;;;;;4.00;2.45;;;12.00;99.90;;;;;;5061366;28;19920;-84
2023/04/01 12:30:56;;;;;;;2.75;2.20;;;12.10;99.90;;;;;;5062402;28;20048;-84
2023/04/01 12:33:42;;;;;;;5.45;3.08;;;11.90;99.90;;;;;;5044732;28;20048;-83
2023/04/01 12:36:27;;;;;;;3.90;3.10;;;11.70;99.90;;;;;;5060612;28;20048;-85
2023/04/01 12:39:18;;;;;;;4.35;2.72;;;11.60;99.90;;;;;;5062547;28;20044;-83
2023/04/01 12:42:08;;;;;;;4.40;2.30;;;11.50;99.90;;;;;;5042761;28;20044;-84
2023/04/01 12:45:00;;;;;;;3.03;2.15;;;11.60;99.90;;;;;;5059366;28;20056;-85
2023/04/01 12:47:46;;;;;;;3.63;2.75;;;11.60;99.90;;;;;;5058862;28;20048;-85
2023/04/01 12:50:21;;;;;;;4.90;2.30;;;11.60;99.90;;;;;;5046885;28;20555;-82
2023/04/01 12:53:07;;;;;;;4.70;2.33;;;11.60;99.90;;;;;;5059390;28;20048;-83
2023/04/01 12:55:40;;;;;;;4.95;2.58;;;11.60;99.90;;;;;;5059716;28;20055;-82
2023/04/01 12:58:27;;;;;;;3.55;2.20;;;11.80;99.90;;;;;;5069092;28;20270;-82
2023/04/01 13:01:21;;;;;;;3.83;2.35;;;11.80;99.90;;;;;;5062385;28;20045;-83
2023/04/01 13:04:06;;;;;;;3.47;2.10;;;11.80;99.90;;;;;;5065822;28;20076;-85
2023/04/01 13:06:41;;;;;;;4.97;2.58;;;11.80;99.90;;;;;;5065827;28;20475;-81
2023/04/01 13:09:47;;;;;;;4.68;2.60;;;11.80;99.90;;;;;;5060545;28;20052;-83
2023/04/01 13:12:34;;;;;;;4.28;2.05;;;11.70;99.90;;;;;;5064913;28;20052;-83
2023/04/01 13:15:40;;;;;;;3.00;1.95;;;12.00;99.90;;;;;;5059751;28;20109;-84
2023/04/01 13:18:12;;;;;;;2.25;1.48;;;12.20;99.90;;;;;;5045989;28;20126;-85
2023/04/01 13:21:11;;;;;;;2.53;1.27;;;12.30;99.90;;;;;;5064678;28;20413;-85
2023/04/01 13:24:18;;;;;;;3.00;1.35;;;12.40;99.90;;;;;;5061407;28;20131;-85
2023/04/01 13:27:06;;;;;;;3.83;1.75;;;12.60;99.90;;;;;;5059309;28;20377;-84
2023/04/01 13:29:40;;;;;;;3.50;1.60;;;12.60;99.90;;;;;;5059911;28;20048;-85
2023/04/01 13:32:23;;;;;;;4.32;1.80;;;12.40;99.90;;;;;;5027776;28;20113;-84
2023/04/01 13:35:27;;;;;;;3.90;1.85;;;12.20;99.90;;;;;;5065265;28;20105;-84
2023/04/01 13:38:06;;;;;;;2.92;1.45;;;12.10;99.90;;;;;;5039080;28;20176;-85
2023/04/01 13:40:40;;;;;;;3.00;1.95;;;12.40;99.90;;;;;;5056862;28;20416;-84
2023/04/01 13:43:39;;;;;;;2.00;1.23;;;12.80;99.90;;;;;;5062553;28;20714;-83
2023/04/01 13:46:23;;;;;;;2.83;1.67;;;13.00;99.90;;;;;;5044876;28;20052;-84